sensor_id;sensor_type;location;lat;lon;timestamp;P1;durP1;ratioP1;P2;durP2;ratioP2
23573;SDS011;11965;53.640;10.050;2023-04-25T00:01:58;5.20;;;5.20;;
23573;SDS011;11965;53.640;10.050;2023-04-25T00:04:25;5.19;;;5.19;;
23573;SDS011;11965;53.640;10.050;2023-04-25T00:06:52;5.26;;;5.26;;
23573;SDS011;11965;53.640;10.050;2023-04-25T00:09:20;5.49;;;5.49;;
23573;SDS011;11965;53.640;10.050;2023-04-25T00:11:48;5.35;;;5.35;;
23573;SDS011;11965;53.640;10.050;2023-04-25T00:14:15;5.83;;;5.83;;
23573;SDS011;11965;53.640;10.050;2023-04-25T00:16:42;5.86;;;5.80;;
23573;SDS011;11965;53.640;10.050;2023-04-25T00:19:09;6.20;;;6.07;;
23573;SDS011;11965;53.640;10.050;2023-04-25T00:21:36;6.10;;;5.95;;
23573;SDS011;11965;53.640;10.050;2023-04-25T00:24:05;6.64;;;6.42;;
23573;SDS011;11965;53.640;10.050;2023-04-25T00:26:33;6.45;;;6.15;;
23573;SDS011;11965;53.640;10.050;2023-04-25T00:29:03;6.38;;;6.03;;
23573;SDS011;11965;53.640;10.050;2023-04-25T00:31:30;6.29;;;5.81;;
23573;SDS011;11965;53.640;10.050;2023-04-25T00:33:57;6.06;;;5.58;;
23573;SDS011;11965;53.640;10.050;2023-04-25T00:36:24;6.35;;;5.82;;
23573;SDS011;11965;53.640;10.050;2023-04-25T00:38:52;6.38;;;5.86;;
23573;SDS011;11965;53.640;10.050;2023-04-25T00:41:19;6.56;;;5.84;;
23573;SDS011;11965;53.640;10.050;2023-04-25T00:43:47;6.63;;;6.00;;
23573;SDS011;11965;53.640;10.050;2023-04-25T00:46:16;6.75;;;6.15;;
23573;SDS011;11965;53.640;10.050;2023-04-25T00:48:43;6.19;;;5.65;;
23573;SDS011;11965;53.640;10.050;2023-04-25T00:51:11;6.71;;;5.98;;
23573;SDS011;11965;53.640;10.050;2023-04-25T00:53:42;6.57;;;5.71;;
23573;SDS011;11965;53.640;10.050;2023-04-25T00:56:11;6.67;;;5.69;;
23573;SDS011;11965;53.640;10.050;2023-04-25T00:58:38;6.94;;;5.83;;
23573;SDS011;11965;53.640;10.050;2023-04-25T01:01:07;7.59;;;6.21;;
23573;SDS011;11965;53.640;10.050;2023-04-25T01:03:38;7.74;;;6.19;;
23573;SDS011;11965;53.640;10.050;2023-04-25T01:06:07;7.54;;;6.11;;
23573;SDS011;11965;53.640;10.050;2023-04-25T01:08:36;7.87;;;6.31;;
23573;SDS011;11965;53.640;10.050;2023-04-25T01:11:04;8.19;;;6.57;;
23573;SDS011;11965;53.640;10.050;2023-04-25T01:13:32;8.69;;;6.88;;
23573;SDS011;11965;53.640;10.050;2023-04-25T01:16:00;8.63;;;6.87;;
23573;SDS011;11965;53.640;10.050;2023-04-25T01:18:27;8.14;;;6.53;;
23573;SDS011;11965;53.640;10.050;2023-04-25T01:20:56;8.68;;;6.77;;
23573;SDS011;11965;53.640;10.050;2023-04-25T01:23:33;8.54;;;6.87;;
23573;SDS011;11965;53.640;10.050;2023-04-25T01:26:00;8.75;;;6.87;;
23573;SDS011;11965;53.640;10.050;2023-04-25T01:28:28;9.03;;;6.96;;
23573;SDS011;11965;53.640;10.050;2023-04-25T01:33:58;10.18;;;7.91;;
23573;SDS011;11965;53.640;10.050;2023-04-25T01:36:29;10.17;;;7.78;;
23573;SDS011;11965;53.640;10.050;2023-04-25T01:38:56;9.46;;;7.68;;
23573;SDS011;11965;53.640;10.050;2023-04-25T01:41:23;8.75;;;7.20;;
23573;SDS011;11965;53.640;10.050;2023-04-25T01:43:51;9.37;;;7.59;;
23573;SDS011;11965;53.640;10.050;2023-04-25T01:46:18;9.21;;;7.45;;
23573;SDS011;11965;53.640;10.050;2023-04-25T01:48:45;10.36;;;8.25;;
23573;SDS011;11965;53.640;10.050;2023-04-25T01:51:12;10.05;;;8.10;;
23573;SDS011;11965;53.640;10.050;2023-04-25T01:53:42;9.92;;;7.77;;
23573;SDS011;11965;53.640;10.050;2023-04-25T01:56:10;10.84;;;8.33;;
23573;SDS011;11965;53.640;10.050;2023-04-25T01:58:38;9.87;;;7.66;;
23573;SDS011;11965;53.640;10.050;2023-04-25T02:01:34;9.34;;;7.42;;
23573;SDS011;11965;53.640;10.050;2023-04-25T02:04:27;9.77;;;7.78;;
23573;SDS011;11965;53.640;10.050;2023-04-25T02:06:54;9.47;;;7.59;;
23573;SDS011;11965;53.640;10.050;2023-04-25T02:09:23;9.51;;;7.53;;
23573;SDS011;11965;53.640;10.050;2023-04-25T02:12:18;9.63;;;7.57;;
23573;SDS011;11965;53.640;10.050;2023-04-25T02:15:09;9.48;;;7.46;;
23573;SDS011;11965;53.640;10.050;2023-04-25T02:17:41;9.87;;;7.76;;
23573;SDS011;11965;53.640;10.050;2023-04-25T02:20:08;9.01;;;7.14;;
23573;SDS011;11965;53.640;10.050;2023-04-25T02:22:36;8.61;;;7.03;;
23573;SDS011;11965;53.640;10.050;2023-04-25T02:25:07;8.68;;;6.90;;
23573;SDS011;11965;53.640;10.050;2023-04-25T02:27:35;8.46;;;6.94;;
23573;SDS011;11965;53.640;10.050;2023-04-25T02:30:02;8.06;;;6.63;;
23573;SDS011;11965;53.640;10.050;2023-04-25T02:32:32;8.58;;;6.91;;
23573;SDS011;11965;53.640;10.050;2023-04-25T02:35:00;8.64;;;6.92;;
23573;SDS011;11965;53.640;10.050;2023-04-25T02:37:29;8.99;;;7.05;;
23573;SDS011;11965;53.640;10.050;2023-04-25T02:39:56;9.45;;;7.42;;
23573;SDS011;11965;53.640;10.050;2023-04-25T02:42:25;9.25;;;7.28;;
23573;SDS011;11965;53.640;10.050;2023-04-25T02:44:52;9.02;;;7.40;;
23573;SDS011;11965;53.640;10.050;2023-04-25T02:47:20;8.51;;;6.99;;
23573;SDS011;11965;53.640;10.050;2023-04-25T02:49:48;9.42;;;7.41;;
23573;SDS011;11965;53.640;10.050;2023-04-25T02:52:15;10.20;;;7.95;;
23573;SDS011;11965;53.640;10.050;2023-04-25T02:54:46;9.22;;;7.20;;
23573;SDS011;11965;53.640;10.050;2023-04-25T02:57:13;9.25;;;7.39;;
23573;SDS011;11965;53.640;10.050;2023-04-25T02:59:42;8.41;;;6.73;;
23573;SDS011;11965;53.640;10.050;2023-04-25T03:02:09;9.23;;;7.32;;
23573;SDS011;11965;53.640;10.050;2023-04-25T03:04:36;9.05;;;7.15;;
23573;SDS011;11965;53.640;10.050;2023-04-25T03:07:03;9.15;;;7.29;;
23573;SDS011;11965;53.640;10.050;2023-04-25T03:09:30;8.29;;;6.68;;
23573;SDS011;11965;53.640;10.050;2023-04-25T03:49:33;7.92;;;6.31;;
23573;SDS011;11965;53.640;10.050;2023-04-25T03:52:02;8.40;;;6.46;;
23573;SDS011;11965;53.640;10.050;2023-04-25T03:54:35;7.96;;;6.25;;
23573;SDS011;11965;53.640;10.050;2023-04-25T03:57:15;7.42;;;5.81;;
23573;SDS011;11965;53.640;10.050;2023-04-25T03:59:42;8.41;;;6.43;;
23573;SDS011;11965;53.640;10.050;2023-04-25T04:02:11;8.49;;;6.38;;
23573;SDS011;11965;53.640;10.050;2023-04-25T04:04:40;8.47;;;6.54;;
23573;SDS011;11965;53.640;10.050;2023-04-25T04:07:09;8.34;;;6.38;;
23573;SDS011;11965;53.640;10.050;2023-04-25T04:09:39;7.75;;;5.95;;
23573;SDS011;11965;53.640;10.050;2023-04-25T04:12:11;8.04;;;6.23;;
23573;SDS011;11965;53.640;10.050;2023-04-25T04:14:39;8.35;;;6.36;;
23573;SDS011;11965;53.640;10.050;2023-04-25T04:17:06;8.36;;;6.44;;
23573;SDS011;11965;53.640;10.050;2023-04-25T04:19:33;7.72;;;5.96;;
23573;SDS011;11965;53.640;10.050;2023-04-25T04:22:16;7.47;;;6.03;;
23573;SDS011;11965;53.640;10.050;2023-04-25T04:24:43;7.15;;;5.88;;
23573;SDS011;11965;53.640;10.050;2023-04-25T04:27:13;7.06;;;5.68;;
23573;SDS011;11965;53.640;10.050;2023-04-25T04:30:04;6.52;;;5.38;;
23573;SDS011;11965;53.640;10.050;2023-04-25T04:32:37;6.65;;;5.51;;
23573;SDS011;11965;53.640;10.050;2023-04-25T04:35:05;6.55;;;5.52;;
23573;SDS011;11965;53.640;10.050;2023-04-25T04:37:35;6.71;;;5.61;;
23573;SDS011;11965;53.640;10.050;2023-04-25T04:40:03;6.96;;;5.74;;
23573;SDS011;11965;53.640;10.050;2023-04-25T04:42:52;7.83;;;6.13;;
23573;SDS011;11965;53.640;10.050;2023-04-25T04:45:27;7.58;;;6.18;;
23573;SDS011;11965;53.640;10.050;2023-04-25T04:48:09;6.92;;;5.66;;
23573;SDS011;11965;53.640;10.050;2023-04-25T04:50:55;6.81;;;5.74;;
23573;SDS011;11965;53.640;10.050;2023-04-25T04:53:44;6.70;;;5.59;;
23573;SDS011;11965;53.640;10.050;2023-04-25T04:56:42;7.23;;;5.74;;
23573;SDS011;11965;53.640;10.050;2023-04-25T04:59:21;6.48;;;5.29;;
23573;SDS011;11965;53.640;10.050;2023-04-25T05:02:02;7.08;;;5.75;;
23573;SDS011;11965;53.640;10.050;2023-04-25T05:04:46;6.02;;;5.01;;
23573;SDS011;11965;53.640;10.050;2023-04-25T05:07:26;6.09;;;5.11;;
23573;SDS011;11965;53.640;10.050;2023-04-25T05:10:21;6.13;;;5.10;;
23573;SDS011;11965;53.640;10.050;2023-04-25T05:13:10;6.48;;;5.31;;
23573;SDS011;11965;53.640;10.050;2023-04-25T05:15:55;6.41;;;5.07;;
23573;SDS011;11965;53.640;10.050;2023-04-25T05:18:33;7.08;;;5.72;;
23573;SDS011;11965;53.640;10.050;2023-04-25T05:21:20;6.97;;;5.48;;
23573;SDS011;11965;53.640;10.050;2023-04-25T05:24:07;6.96;;;5.44;;
23573;SDS011;11965;53.640;10.050;2023-04-25T05:27:02;7.33;;;5.68;;
23573;SDS011;11965;53.640;10.050;2023-04-25T05:29:59;6.71;;;5.26;;
23573;SDS011;11965;53.640;10.050;2023-04-25T05:32:31;7.19;;;5.60;;
23573;SDS011;11965;53.640;10.050;2023-04-25T05:34:59;6.40;;;5.13;;
23573;SDS011;11965;53.640;10.050;2023-04-25T05:37:31;5.76;;;4.75;;
23573;SDS011;11965;53.640;10.050;2023-04-25T05:40:08;5.27;;;4.49;;
23573;SDS011;11965;53.640;10.050;2023-04-25T05:42:39;5.79;;;4.81;;
23573;SDS011;11965;53.640;10.050;2023-04-25T05:45:21;5.88;;;4.80;;
23573;SDS011;11965;53.640;10.050;2023-04-25T05:48:04;5.68;;;4.57;;
23573;SDS011;11965;53.640;10.050;2023-04-25T05:51:03;6.14;;;4.95;;
23573;SDS011;11965;53.640;10.050;2023-04-25T05:53:59;5.58;;;4.59;;
23573;SDS011;11965;53.640;10.050;2023-04-25T05:56:26;5.63;;;4.68;;
23573;SDS011;11965;53.640;10.050;2023-04-25T05:58:55;6.08;;;5.01;;
23573;SDS011;11965;53.640;10.050;2023-04-25T06:01:22;6.34;;;5.14;;
23573;SDS011;11965;53.640;10.050;2023-04-25T06:03:49;5.25;;;4.42;;
23573;SDS011;11965;53.640;10.050;2023-04-25T06:06:17;5.36;;;4.66;;
23573;SDS011;11965;53.640;10.050;2023-04-25T06:08:45;5.50;;;4.66;;
23573;SDS011;11965;53.640;10.050;2023-04-25T06:11:12;6.49;;;5.19;;
23573;SDS011;11965;53.640;10.050;2023-04-25T06:13:39;5.72;;;4.54;;
23573;SDS011;11965;53.640;10.050;2023-04-25T06:16:08;6.38;;;5.21;;
23573;SDS011;11965;53.640;10.050;2023-04-25T06:18:35;6.22;;;4.95;;
23573;SDS011;11965;53.640;10.050;2023-04-25T06:21:02;6.16;;;4.91;;
23573;SDS011;11965;53.640;10.050;2023-04-25T06:23:29;6.83;;;5.66;;
23573;SDS011;11965;53.640;10.050;2023-04-25T06:26:02;5.99;;;4.96;;
23573;SDS011;11965;53.640;10.050;2023-04-25T06:28:30;6.10;;;5.08;;
23573;SDS011;11965;53.640;10.050;2023-04-25T06:30:58;6.10;;;5.03;;
23573;SDS011;11965;53.640;10.050;2023-04-25T06:33:26;6.17;;;5.09;;
23573;SDS011;11965;53.640;10.050;2023-04-25T06:35:54;5.78;;;4.93;;
23573;SDS011;11965;53.640;10.050;2023-04-25T06:38:24;5.31;;;4.49;;
23573;SDS011;11965;53.640;10.050;2023-04-25T06:40:53;5.93;;;4.96;;
23573;SDS011;11965;53.640;10.050;2023-04-25T06:43:20;6.34;;;5.06;;
23573;SDS011;11965;53.640;10.050;2023-04-25T06:45:47;6.32;;;4.89;;
23573;SDS011;11965;53.640;10.050;2023-04-25T06:48:15;6.64;;;5.22;;
23573;SDS011;11965;53.640;10.050;2023-04-25T06:50:43;5.99;;;4.75;;
23573;SDS011;11965;53.640;10.050;2023-04-25T06:53:11;6.73;;;5.34;;
23573;SDS011;11965;53.640;10.050;2023-04-25T06:55:39;6.42;;;5.09;;
23573;SDS011;11965;53.640;10.050;2023-04-25T06:58:14;6.13;;;4.94;;
23573;SDS011;11965;53.640;10.050;2023-04-25T07:01:03;6.20;;;4.85;;
23573;SDS011;11965;53.640;10.050;2023-04-25T07:03:30;6.75;;;5.20;;
23573;SDS011;11965;53.640;10.050;2023-04-25T07:06:03;6.28;;;4.82;;
23573;SDS011;11965;53.640;10.050;2023-04-25T07:08:30;6.46;;;4.96;;
23573;SDS011;11965;53.640;10.050;2023-04-25T07:10:58;6.90;;;5.28;;
23573;SDS011;11965;53.640;10.050;2023-04-25T07:13:25;6.15;;;4.68;;
23573;SDS011;11965;53.640;10.050;2023-04-25T07:15:52;6.08;;;4.68;;
23573;SDS011;11965;53.640;10.050;2023-04-25T07:18:20;6.43;;;4.93;;
23573;SDS011;11965;53.640;10.050;2023-04-25T07:20:48;5.43;;;4.28;;
23573;SDS011;11965;53.640;10.050;2023-04-25T07:23:17;4.54;;;3.60;;
23573;SDS011;11965;53.640;10.050;2023-04-25T07:25:43;4.23;;;3.46;;
23573;SDS011;11965;53.640;10.050;2023-04-25T07:28:12;4.29;;;3.48;;
23573;SDS011;11965;53.640;10.050;2023-04-25T07:30:39;4.51;;;3.67;;
23573;SDS011;11965;53.640;10.050;2023-04-25T07:33:06;4.27;;;3.51;;
23573;SDS011;11965;53.640;10.050;2023-04-25T07:35:33;4.70;;;3.86;;
23573;SDS011;11965;53.640;10.050;2023-04-25T07:38:01;4.36;;;3.56;;
23573;SDS011;11965;53.640;10.050;2023-04-25T07:40:29;4.60;;;3.77;;
23573;SDS011;11965;53.640;10.050;2023-04-25T07:43:02;4.79;;;3.81;;
23573;SDS011;11965;53.640;10.050;2023-04-25T07:45:38;5.08;;;4.02;;
23573;SDS011;11965;53.640;10.050;2023-04-25T07:48:06;4.95;;;4.05;;
23573;SDS011;11965;53.640;10.050;2023-04-25T07:50:36;5.23;;;4.29;;
23573;SDS011;11965;53.640;10.050;2023-04-25T07:53:03;5.20;;;4.04;;
23573;SDS011;11965;53.640;10.050;2023-04-25T07:55:37;5.27;;;4.12;;
23573;SDS011;11965;53.640;10.050;2023-04-25T07:58:13;4.91;;;3.91;;
23573;SDS011;11965;53.640;10.050;2023-04-25T08:00:43;5.80;;;4.60;;
23573;SDS011;11965;53.640;10.050;2023-04-25T08:03:36;5.92;;;4.52;;
23573;SDS011;11965;53.640;10.050;2023-04-25T08:06:08;6.59;;;4.95;;
23573;SDS011;11965;53.640;10.050;2023-04-25T08:08:46;5.45;;;4.14;;
23573;SDS011;11965;53.640;10.050;2023-04-25T08:11:18;6.13;;;4.70;;
23573;SDS011;11965;53.640;10.050;2023-04-25T08:13:45;5.92;;;4.56;;
23573;SDS011;11965;53.640;10.050;2023-04-25T08:16:12;5.94;;;4.38;;
23573;SDS011;11965;53.640;10.050;2023-04-25T08:18:40;6.12;;;4.44;;
23573;SDS011;11965;53.640;10.050;2023-04-25T08:21:07;4.43;;;3.16;;
23573;SDS011;11965;53.640;10.050;2023-04-25T08:23:36;3.78;;;2.77;;
23573;SDS011;11965;53.640;10.050;2023-04-25T08:26:12;3.38;;;2.57;;
23573;SDS011;11965;53.640;10.050;2023-04-25T08:28:43;2.90;;;2.23;;
23573;SDS011;11965;53.640;10.050;2023-04-25T08:31:10;3.38;;;2.59;;
23573;SDS011;11965;53.640;10.050;2023-04-25T08:33:47;3.28;;;2.49;;
23573;SDS011;11965;53.640;10.050;2023-04-25T08:36:22;3.59;;;2.75;;
23573;SDS011;11965;53.640;10.050;2023-04-25T08:38:49;3.27;;;2.52;;
23573;SDS011;11965;53.640;10.050;2023-04-25T08:41:18;4.25;;;3.21;;
23573;SDS011;11965;53.640;10.050;2023-04-25T08:43:49;4.39;;;3.29;;
23573;SDS011;11965;53.640;10.050;2023-04-25T08:46:18;5.05;;;3.82;;
23573;SDS011;11965;53.640;10.050;2023-04-25T08:49:04;4.95;;;3.77;;
23573;SDS011;11965;53.640;10.050;2023-04-25T08:51:32;5.30;;;4.00;;
23573;SDS011;11965;53.640;10.050;2023-04-25T08:54:04;5.40;;;3.96;;
23573;SDS011;11965;53.640;10.050;2023-04-25T08:56:36;5.42;;;4.01;;
23573;SDS011;11965;53.640;10.050;2023-04-25T08:59:06;5.43;;;4.15;;
23573;SDS011;11965;53.640;10.050;2023-04-25T09:01:35;5.66;;;4.30;;
23573;SDS011;11965;53.640;10.050;2023-04-25T09:04:03;5.76;;;4.32;;
23573;SDS011;11965;53.640;10.050;2023-04-25T09:06:32;5.83;;;4.36;;
23573;SDS011;11965;53.640;10.050;2023-04-25T09:09:05;5.81;;;4.32;;
23573;SDS011;11965;53.640;10.050;2023-04-25T09:11:33;5.68;;;4.21;;
23573;SDS011;11965;53.640;10.050;2023-04-25T09:14:11;5.85;;;4.32;;
23573;SDS011;11965;53.640;10.050;2023-04-25T09:16:57;6.10;;;4.41;;
23573;SDS011;11965;53.640;10.050;2023-04-25T09:19:37;5.67;;;4.20;;
23573;SDS011;11965;53.640;10.050;2023-04-25T09:22:08;5.85;;;4.34;;
23573;SDS011;11965;53.640;10.050;2023-04-25T09:24:36;5.33;;;3.94;;
23573;SDS011;11965;53.640;10.050;2023-04-25T09:27:05;5.59;;;4.05;;
23573;SDS011;11965;53.640;10.050;2023-04-25T09:29:35;4.88;;;3.62;;
23573;SDS011;11965;53.640;10.050;2023-04-25T09:32:10;4.94;;;3.67;;
23573;SDS011;11965;53.640;10.050;2023-04-25T09:34:39;4.95;;;3.63;;
23573;SDS011;11965;53.640;10.050;2023-04-25T09:37:08;5.70;;;4.09;;
23573;SDS011;11965;53.640;10.050;2023-04-25T09:39:56;5.57;;;4.03;;
23573;SDS011;11965;53.640;10.050;2023-04-25T09:42:25;4.76;;;3.52;;
23573;SDS011;11965;53.640;10.050;2023-04-25T09:44:55;4.62;;;3.48;;
23573;SDS011;11965;53.640;10.050;2023-04-25T09:47:24;4.46;;;3.33;;
23573;SDS011;11965;53.640;10.050;2023-04-25T09:49:54;4.10;;;3.10;;
23573;SDS011;11965;53.640;10.050;2023-04-25T09:52:22;4.07;;;3.03;;
23573;SDS011;11965;53.640;10.050;2023-04-25T09:55:01;3.56;;;2.66;;
23573;SDS011;11965;53.640;10.050;2023-04-25T09:57:32;3.97;;;2.98;;
23573;SDS011;11965;53.640;10.050;2023-04-25T10:00:02;4.37;;;3.22;;
23573;SDS011;11965;53.640;10.050;2023-04-25T10:02:40;4.53;;;3.35;;
23573;SDS011;11965;53.640;10.050;2023-04-25T10:05:19;4.92;;;3.73;;
23573;SDS011;11965;53.640;10.050;2023-04-25T10:07:48;4.40;;;3.34;;
23573;SDS011;11965;53.640;10.050;2023-04-25T10:10:15;4.47;;;3.36;;
23573;SDS011;11965;53.640;10.050;2023-04-25T10:12:43;4.91;;;3.66;;
23573;SDS011;11965;53.640;10.050;2023-04-25T10:15:13;4.33;;;3.23;;
23573;SDS011;11965;53.640;10.050;2023-04-25T10:17:41;4.27;;;3.23;;
23573;SDS011;11965;53.640;10.050;2023-04-25T10:20:10;4.00;;;3.06;;
23573;SDS011;11965;53.640;10.050;2023-04-25T10:22:38;3.84;;;2.95;;
23573;SDS011;11965;53.640;10.050;2023-04-25T10:25:08;3.70;;;2.84;;
23573;SDS011;11965;53.640;10.050;2023-04-25T10:27:36;3.49;;;2.56;;
23573;SDS011;11965;53.640;10.050;2023-04-25T10:30:03;3.48;;;2.53;;
23573;SDS011;11965;53.640;10.050;2023-04-25T10:32:36;4.03;;;2.92;;
23573;SDS011;11965;53.640;10.050;2023-04-25T10:35:10;4.61;;;3.33;;
23573;SDS011;11965;53.640;10.050;2023-04-25T10:40:26;3.99;;;2.91;;
23573;SDS011;11965;53.640;10.050;2023-04-25T10:42:54;4.21;;;3.06;;
23573;SDS011;11965;53.640;10.050;2023-04-25T10:45:21;3.89;;;2.82;;
23573;SDS011;11965;53.640;10.050;2023-04-25T10:47:50;4.29;;;3.09;;
23573;SDS011;11965;53.640;10.050;2023-04-25T10:50:17;4.00;;;2.93;;
23573;SDS011;11965;53.640;10.050;2023-04-25T10:52:44;4.35;;;3.19;;
23573;SDS011;11965;53.640;10.050;2023-04-25T10:55:11;3.99;;;2.97;;
23573;SDS011;11965;53.640;10.050;2023-04-25T10:57:39;3.83;;;2.85;;
23573;SDS011;11965;53.640;10.050;2023-04-25T11:00:16;3.42;;;2.51;;
23573;SDS011;11965;53.640;10.050;2023-04-25T11:02:45;4.48;;;3.20;;
23573;SDS011;11965;53.640;10.050;2023-04-25T11:05:20;4.09;;;2.90;;
23573;SDS011;11965;53.640;10.050;2023-04-25T11:07:52;4.15;;;2.88;;
23573;SDS011;11965;53.640;10.050;2023-04-25T11:10:25;4.26;;;3.00;;
23573;SDS011;11965;53.640;10.050;2023-04-25T11:12:52;4.43;;;3.17;;
23573;SDS011;11965;53.640;10.050;2023-04-25T11:15:19;4.26;;;3.03;;
23573;SDS011;11965;53.640;10.050;2023-04-25T11:17:46;3.42;;;2.45;;
23573;SDS011;11965;53.640;10.050;2023-04-25T11:20:13;3.17;;;2.33;;
23573;SDS011;11965;53.640;10.050;2023-04-25T11:22:42;3.02;;;2.28;;
23573;SDS011;11965;53.640;10.050;2023-04-25T11:25:12;2.61;;;1.94;;
23573;SDS011;11965;53.640;10.050;2023-04-25T11:27:49;3.00;;;2.26;;
23573;SDS011;11965;53.640;10.050;2023-04-25T11:30:16;2.69;;;2.03;;
23573;SDS011;11965;53.640;10.050;2023-04-25T11:32:44;3.35;;;2.49;;
23573;SDS011;11965;53.640;10.050;2023-04-25T11:35:11;3.31;;;2.49;;
23573;SDS011;11965;53.640;10.050;2023-04-25T11:37:41;3.34;;;2.56;;
23573;SDS011;11965;53.640;10.050;2023-04-25T11:40:10;3.58;;;2.64;;
23573;SDS011;11965;53.640;10.050;2023-04-25T11:42:38;3.29;;;2.39;;
23573;SDS011;11965;53.640;10.050;2023-04-25T11:45:09;3.70;;;2.62;;
23573;SDS011;11965;53.640;10.050;2023-04-25T11:47:37;4.01;;;2.83;;
23573;SDS011;11965;53.640;10.050;2023-04-25T11:50:04;4.17;;;2.95;;
23573;SDS011;11965;53.640;10.050;2023-04-25T11:52:37;3.70;;;2.62;;
23573;SDS011;11965;53.640;10.050;2023-04-25T11:55:08;3.27;;;2.37;;
23573;SDS011;11965;53.640;10.050;2023-04-25T11:57:37;3.92;;;2.89;;
23573;SDS011;11965;53.640;10.050;2023-04-25T12:00:07;3.12;;;2.26;;
23573;SDS011;11965;53.640;10.050;2023-04-25T12:02:37;3.48;;;2.47;;
23573;SDS011;11965;53.640;10.050;2023-04-25T12:05:07;2.99;;;2.10;;
23573;SDS011;11965;53.640;10.050;2023-04-25T12:07:35;3.04;;;2.12;;
23573;SDS011;11965;53.640;10.050;2023-04-25T12:10:06;2.54;;;1.79;;
23573;SDS011;11965;53.640;10.050;2023-04-25T12:12:37;2.45;;;1.77;;
23573;SDS011;11965;53.640;10.050;2023-04-25T12:15:08;2.23;;;1.59;;
23573;SDS011;11965;53.640;10.050;2023-04-25T12:17:40;3.13;;;2.16;;
23573;SDS011;11965;53.640;10.050;2023-04-25T12:20:09;3.31;;;2.25;;
23573;SDS011;11965;53.640;10.050;2023-04-25T12:22:37;3.14;;;2.19;;
23573;SDS011;11965;53.640;10.050;2023-04-25T12:25:11;3.29;;;2.31;;
23573;SDS011;11965;53.640;10.050;2023-04-25T12:27:38;3.33;;;2.34;;
23573;SDS011;11965;53.640;10.050;2023-04-25T12:30:07;3.61;;;2.57;;
23573;SDS011;11965;53.640;10.050;2023-04-25T12:32:36;3.43;;;2.48;;
23573;SDS011;11965;53.640;10.050;2023-04-25T12:35:03;2.85;;;2.04;;
23573;SDS011;11965;53.640;10.050;2023-04-25T12:37:31;3.28;;;2.33;;
23573;SDS011;11965;53.640;10.050;2023-04-25T12:39:58;3.51;;;2.49;;
23573;SDS011;11965;53.640;10.050;2023-04-25T12:42:27;3.32;;;2.40;;
23573;SDS011;11965;53.640;10.050;2023-04-25T12:44:54;2.96;;;2.13;;
23573;SDS011;11965;53.640;10.050;2023-04-25T12:47:20;3.31;;;2.35;;
23573;SDS011;11965;53.640;10.050;2023-04-25T12:49:47;3.64;;;2.63;;
23573;SDS011;11965;53.640;10.050;2023-04-25T12:52:14;3.79;;;2.74;;
23573;SDS011;11965;53.640;10.050;2023-04-25T12:54:41;4.01;;;2.85;;
23573;SDS011;11965;53.640;10.050;2023-04-25T12:57:08;4.11;;;2.96;;
23573;SDS011;11965;53.640;10.050;2023-04-25T12:59:38;4.02;;;2.87;;
23573;SDS011;11965;53.640;10.050;2023-04-25T13:02:05;3.77;;;2.71;;
23573;SDS011;11965;53.640;10.050;2023-04-25T13:04:32;3.15;;;2.32;;
23573;SDS011;11965;53.640;10.050;2023-04-25T13:06:59;3.44;;;2.55;;
23573;SDS011;11965;53.640;10.050;2023-04-25T13:09:26;3.06;;;2.25;;
23573;SDS011;11965;53.640;10.050;2023-04-25T13:11:53;3.04;;;2.28;;
23573;SDS011;11965;53.640;10.050;2023-04-25T13:14:20;3.51;;;2.64;;
23573;SDS011;11965;53.640;10.050;2023-04-25T13:16:48;3.11;;;2.33;;
23573;SDS011;11965;53.640;10.050;2023-04-25T13:19:15;4.11;;;3.03;;
23573;SDS011;11965;53.640;10.050;2023-04-25T13:21:42;3.24;;;2.41;;
23573;SDS011;11965;53.640;10.050;2023-04-25T13:24:09;3.63;;;2.67;;
23573;SDS011;11965;53.640;10.050;2023-04-25T13:26:35;4.10;;;2.98;;
23573;SDS011;11965;53.640;10.050;2023-04-25T13:29:02;3.90;;;2.86;;
23573;SDS011;11965;53.640;10.050;2023-04-25T13:31:30;3.82;;;2.84;;
23573;SDS011;11965;53.640;10.050;2023-04-25T13:33:59;4.41;;;3.30;;
23573;SDS011;11965;53.640;10.050;2023-04-25T13:36:26;4.65;;;3.47;;
23573;SDS011;11965;53.640;10.050;2023-04-25T13:38:53;3.36;;;2.55;;
23573;SDS011;11965;53.640;10.050;2023-04-25T13:41:19;3.41;;;2.67;;
23573;SDS011;11965;53.640;10.050;2023-04-25T13:43:46;3.40;;;2.68;;
23573;SDS011;11965;53.640;10.050;2023-04-25T13:46:14;3.51;;;2.76;;
23573;SDS011;11965;53.640;10.050;2023-04-25T13:48:41;3.97;;;3.09;;
23573;SDS011;11965;53.640;10.050;2023-04-25T13:51:16;3.54;;;2.67;;
23573;SDS011;11965;53.640;10.050;2023-04-25T13:53:43;3.15;;;2.48;;
23573;SDS011;11965;53.640;10.050;2023-04-25T13:56:10;3.21;;;2.61;;
23573;SDS011;11965;53.640;10.050;2023-04-25T13:58:37;3.55;;;2.85;;
23573;SDS011;11965;53.640;10.050;2023-04-25T14:01:05;3.66;;;2.92;;
23573;SDS011;11965;53.640;10.050;2023-04-25T14:03:32;3.32;;;2.67;;
23573;SDS011;11965;53.640;10.050;2023-04-25T14:05:58;3.24;;;2.62;;
23573;SDS011;11965;53.640;10.050;2023-04-25T14:08:27;3.52;;;2.84;;
23573;SDS011;11965;53.640;10.050;2023-04-25T14:10:54;3.48;;;2.82;;
23573;SDS011;11965;53.640;10.050;2023-04-25T14:13:21;3.36;;;2.70;;
23573;SDS011;11965;53.640;10.050;2023-04-25T14:15:48;3.07;;;2.44;;
23573;SDS011;11965;53.640;10.050;2023-04-25T14:18:16;3.42;;;2.70;;
23573;SDS011;11965;53.640;10.050;2023-04-25T14:20:43;3.15;;;2.52;;
23573;SDS011;11965;53.640;10.050;2023-04-25T14:23:10;3.24;;;2.51;;
23573;SDS011;11965;53.640;10.050;2023-04-25T14:25:38;3.02;;;2.29;;
23573;SDS011;11965;53.640;10.050;2023-04-25T14:28:07;3.29;;;2.47;;
23573;SDS011;11965;53.640;10.050;2023-04-25T14:30:34;3.72;;;2.79;;
23573;SDS011;11965;53.640;10.050;2023-04-25T14:33:01;3.37;;;2.59;;
23573;SDS011;11965;53.640;10.050;2023-04-25T14:35:27;3.73;;;2.91;;
23573;SDS011;11965;53.640;10.050;2023-04-25T14:37:54;3.11;;;2.44;;
23573;SDS011;11965;53.640;10.050;2023-04-25T14:40:22;3.29;;;2.59;;
23573;SDS011;11965;53.640;10.050;2023-04-25T14:42:50;3.43;;;2.64;;
23573;SDS011;11965;53.640;10.050;2023-04-25T14:45:17;3.13;;;2.36;;
23573;SDS011;11965;53.640;10.050;2023-04-25T14:47:44;2.93;;;2.19;;
23573;SDS011;11965;53.640;10.050;2023-04-25T14:50:11;3.33;;;2.46;;
23573;SDS011;11965;53.640;10.050;2023-04-25T14:52:38;3.39;;;2.49;;
23573;SDS011;11965;53.640;10.050;2023-04-25T14:55:05;3.57;;;2.63;;
23573;SDS011;11965;53.640;10.050;2023-04-25T14:57:33;3.40;;;2.53;;
23573;SDS011;11965;53.640;10.050;2023-04-25T15:00:03;3.18;;;2.40;;
23573;SDS011;11965;53.640;10.050;2023-04-25T15:02:33;3.49;;;2.60;;
23573;SDS011;11965;53.640;10.050;2023-04-25T15:05:00;3.04;;;2.29;;
23573;SDS011;11965;53.640;10.050;2023-04-25T15:07:28;3.26;;;2.43;;
23573;SDS011;11965;53.640;10.050;2023-04-25T15:09:55;4.07;;;3.00;;
23573;SDS011;11965;53.640;10.050;2023-04-25T15:12:22;3.54;;;2.66;;
23573;SDS011;11965;53.640;10.050;2023-04-25T15:14:51;2.67;;;2.01;;
23573;SDS011;11965;53.640;10.050;2023-04-25T15:17:19;2.65;;;2.03;;
23573;SDS011;11965;53.640;10.050;2023-04-25T15:19:46;2.77;;;2.19;;
23573;SDS011;11965;53.640;10.050;2023-04-25T15:22:13;2.95;;;2.28;;
23573;SDS011;11965;53.640;10.050;2023-04-25T15:24:40;2.43;;;1.87;;
23573;SDS011;11965;53.640;10.050;2023-04-25T15:27:07;2.77;;;2.14;;
23573;SDS011;11965;53.640;10.050;2023-04-25T15:29:34;2.82;;;2.18;;
23573;SDS011;11965;53.640;10.050;2023-04-25T15:32:01;2.76;;;2.16;;
23573;SDS011;11965;53.640;10.050;2023-04-25T15:34:29;3.16;;;2.44;;
23573;SDS011;11965;53.640;10.050;2023-04-25T15:36:56;3.14;;;2.44;;